createdAt,value
2018-06-09T00:00:17.007Z,94619.94
2018-06-09T00:02:46.233Z,94618.41
2018-06-09T00:05:15.460Z,94618.09
2018-06-09T00:07:44.677Z,94615.77
2018-06-09T00:10:13.881Z,94619.53
2018-06-09T00:12:43.133Z,94613.66
2018-06-09T00:15:12.287Z,94621.76
2018-06-09T00:17:41.494Z,94619.52
2018-06-09T00:20:10.720Z,94626.13
2018-06-09T00:22:39.922Z,94635.34
2018-06-09T00:25:09.163Z,94636.98
2018-06-09T00:27:38.461Z,94643.66
2018-06-09T00:30:07.811Z,94645.29
2018-06-09T00:32:37.017Z,94646.11
2018-06-09T00:35:06.007Z,94649.65
2018-06-09T00:37:36.006Z,94647.62
2018-06-09T00:40:05.247Z,94646.41
2018-06-09T00:42:34.502Z,94641.95
2018-06-09T00:45:03.747Z,94640.73
2018-06-09T00:47:33.112Z,94633.41
2018-06-09T00:50:02.327Z,94632.91
2018-06-09T00:52:31.524Z,94638.09
2018-06-09T00:55:00.814Z,94638.19
2018-06-09T00:57:30.029Z,94634.95
2018-06-09T00:59:59.248Z,94636.88
2018-06-09T01:02:28.475Z,94638.09
2018-06-09T01:04:57.694Z,94640.03
2018-06-09T01:07:26.677Z,94637.59
2018-06-09T01:09:55.897Z,94631.08
2018-06-09T01:12:25.116Z,94631.19
2018-06-09T01:14:54.366Z,94623.28
2018-06-09T01:17:23.605Z,94626.84
2018-06-09T01:19:52.883Z,94633.75
2018-06-09T01:22:22.094Z,94632.11
2018-06-09T01:24:51.312Z,94627.94
2018-06-09T01:27:20.530Z,94617.41
2018-06-09T01:29:49.742Z,94619.71
2018-06-09T01:32:18.974Z,94617.28
2018-06-09T01:34:48.207Z,94620.85
2018-06-09T01:37:17.414Z,94610.48
2018-06-09T01:39:46.650Z,94608.07
2018-06-09T01:42:15.877Z,94605.63
2018-06-09T01:44:45.135Z,94605.73
2018-06-09T01:47:45.410Z,94618.21
2018-06-09T01:50:14.624Z,94621.75
2018-06-09T01:52:44.382Z,94628.86
2018-06-09T01:55:13.602Z,94627.76
2018-06-09T01:57:42.814Z,94619.92
2018-06-09T02:00:12.029Z,94610.98
2018-06-09T02:02:41.245Z,94616.58
2018-06-09T02:05:10.454Z,94617.06
2018-06-09T02:07:39.675Z,94620.58
2018-06-09T02:10:08.902Z,94620.69
2018-06-09T02:12:38.180Z,94615.28
2018-06-09T02:15:07.394Z,94607.80
2018-06-09T02:17:36.711Z,94598.86
2018-06-09T02:20:06.102Z,94599.05
2018-06-09T02:22:35.302Z,94600.66
2018-06-09T02:25:04.532Z,94607.80
2018-06-09T02:27:33.758Z,94613.58
2018-06-09T02:30:02.984Z,94602.53
2018-06-09T02:32:32.191Z,94618.48
2018-06-09T02:35:01.389Z,94620.06
2018-06-09T02:37:30.614Z,94626.64
2018-06-09T02:39:59.824Z,94634.34
2018-06-09T02:42:29.051Z,94635.74
2018-06-09T02:44:58.288Z,94639.28
2018-06-09T02:47:27.519Z,94635.87
2018-06-09T02:49:56.753Z,94641.03
2018-06-09T02:52:26.044Z,94638.33
2018-06-09T02:54:55.276Z,94626.26
2018-06-09T02:57:24.478Z,94631.92
2018-06-09T02:59:53.707Z,94637.08
2018-06-09T03:02:23.174Z,94640.32
2018-06-09T03:04:52.398Z,94638.50
2018-06-09T03:07:21.646Z,94635.34
2018-06-09T03:09:50.862Z,94637.86
2018-06-09T03:12:20.093Z,94637.75
2018-06-09T03:14:49.291Z,94648.25
2018-06-09T03:17:18.487Z,94650.37
2018-06-09T03:19:47.987Z,94651.81
2018-06-09T03:22:17.189Z,94659.66
2018-06-09T03:24:46.418Z,94661.92
2018-06-09T03:27:15.643Z,94660.11
2018-06-09T03:29:44.905Z,94657.83
2018-06-09T03:32:14.135Z,94657.76
2018-06-09T03:34:43.335Z,94658.66
2018-06-09T03:37:12.564Z,94666.77
2018-06-09T03:39:41.787Z,94670.02
2018-06-09T03:42:11.007Z,94672.25
2018-06-09T03:44:40.210Z,94673.69
2018-06-09T03:47:09.431Z,94673.08
2018-06-09T03:49:38.631Z,94670.91
2018-06-09T03:52:07.850Z,94668.70
2018-06-09T03:54:37.051Z,94664.47
2018-06-09T03:57:06.283Z,94657.23
2018-06-09T03:59:35.503Z,94654.06
2018-06-09T04:02:05.068Z,94660.65
2018-06-09T04:04:34.290Z,94666.34
2018-06-09T04:07:03.530Z,94673.78
2018-06-09T04:09:32.755Z,94670.39
2018-06-09T04:12:01.967Z,94668.94
2018-06-09T04:14:31.174Z,94659.70
2018-06-09T04:17:00.430Z,94660.97
2018-06-09T04:19:29.667Z,94662.31
2018-06-09T04:21:58.868Z,94670.53
2018-06-09T04:24:28.089Z,94676.94
2018-06-09T04:26:57.320Z,94669.92
2018-06-09T04:29:26.547Z,94676.83
2018-06-09T04:31:55.780Z,94682.55
2018-06-09T04:34:24.981Z,94677.50
2018-06-09T04:36:54.193Z,94686.44
2018-06-09T04:39:23.422Z,94691.41
2018-06-09T04:41:52.663Z,94689.27
2018-06-09T04:44:21.850Z,94696.29
2018-06-09T04:46:51.084Z,94697.80
2018-06-09T04:49:20.294Z,94699.44
2018-06-09T04:51:49.522Z,94700.98
2018-06-09T04:54:18.729Z,94696.36
2018-06-09T04:56:47.943Z,94698.49
2018-06-09T04:59:17.197Z,94703.41
2018-06-09T05:01:46.411Z,94705.06
2018-06-09T05:04:15.614Z,94711.52
2018-06-09T05:06:44.835Z,94714.19
2018-06-09T05:09:14.063Z,94712.64
2018-06-09T05:11:43.279Z,94717.17
2018-06-09T05:14:12.877Z,94724.78
2018-06-09T05:16:42.079Z,94722.12
2018-06-09T05:19:11.284Z,94720.87
2018-06-09T05:21:40.502Z,94720.20
2018-06-09T05:24:09.722Z,94715.18
2018-06-09T05:26:38.950Z,94715.13
2018-06-09T05:29:08.173Z,94716.95
2018-06-09T05:31:37.383Z,94723.28
2018-06-09T05:34:06.663Z,94723.83
2018-06-09T05:36:35.924Z,94727.27
2018-06-09T05:39:07.803Z,94722.52
2018-06-09T05:41:37.069Z,94714.70
2018-06-09T05:44:07.307Z,94704.98
2018-06-09T05:46:36.511Z,94706.09
2018-06-09T05:49:05.719Z,94693.16
2018-06-09T05:51:35.022Z,94691.13
2018-06-09T05:54:04.279Z,94692.95
2018-06-09T05:56:33.518Z,94691.00
2018-06-09T05:59:02.742Z,94701.22
2018-06-09T06:01:32.302Z,94695.09
2018-06-09T06:04:01.610Z,94699.56
2018-06-09T06:06:30.810Z,94701.78
2018-06-09T06:08:59.834Z,94703.80
2018-06-09T06:11:29.059Z,94703.53
2018-06-09T06:13:58.298Z,94701.26
2018-06-09T06:16:27.517Z,94704.80
2018-06-09T06:18:56.716Z,94702.30
2018-06-09T06:21:25.941Z,94702.97
2018-06-09T06:23:55.147Z,94705.13
2018-06-09T06:26:24.370Z,94704.95
2018-06-09T06:28:53.599Z,94702.02
2018-06-09T06:31:22.830Z,94708.41
2018-06-09T06:33:52.055Z,94709.09
2018-06-09T06:36:21.269Z,94706.77
2018-06-09T06:38:50.487Z,94698.23
2018-06-09T06:41:19.711Z,94696.26
2018-06-09T06:43:48.938Z,94692.88
2018-06-09T06:46:18.163Z,94696.69
2018-06-09T06:48:47.370Z,94693.58
2018-06-09T06:51:16.587Z,94699.41
2018-06-09T06:53:45.790Z,94698.55
2018-06-09T06:56:15.025Z,94696.67
2018-06-09T06:58:44.239Z,94693.95
2018-06-09T07:01:13.605Z,94695.34
2018-06-09T07:03:42.835Z,94704.22
2018-06-09T07:06:12.069Z,94704.08
2018-06-09T07:08:41.502Z,94700.11
2018-06-09T07:11:10.720Z,94703.90
2018-06-09T07:13:39.934Z,94699.95
2018-06-09T07:16:09.154Z,94695.55
2018-06-09T07:18:38.383Z,94699.85
2018-06-09T07:21:07.263Z,94703.50
2018-06-09T07:23:36.487Z,94715.10
2018-06-09T07:26:06.091Z,94713.11
2018-06-09T07:28:35.305Z,94713.72
2018-06-09T07:31:04.518Z,94712.17
2018-06-09T07:33:33.728Z,94716.10
2018-06-09T07:36:02.946Z,94717.55
2018-06-09T07:38:32.142Z,94716.36
2018-06-09T07:41:01.369Z,94714.51
2018-06-09T07:43:30.575Z,94713.07
2018-06-09T07:45:59.780Z,94722.87
2018-06-09T07:48:29.021Z,94723.27
2018-06-09T07:50:58.223Z,94725.76
2018-06-09T07:53:27.419Z,94730.77
2018-06-09T07:55:56.691Z,94732.59
2018-06-09T07:58:25.908Z,94728.55
2018-06-09T08:00:55.105Z,94736.64
2018-06-09T08:03:24.318Z,94732.63
2018-06-09T08:05:53.522Z,94726.39
2018-06-09T08:08:22.732Z,94725.38
2018-06-09T08:10:51.939Z,94724.33
2018-06-09T08:13:21.135Z,94731.80
2018-06-09T08:15:50.335Z,94732.63
2018-06-09T08:18:19.528Z,94734.56
2018-06-09T08:20:48.766Z,94731.72
2018-06-09T08:23:17.982Z,94727.77
2018-06-09T08:25:47.188Z,94717.56
2018-06-09T08:28:16.469Z,94729.48
2018-06-09T08:30:45.675Z,94724.00
2018-06-09T08:33:14.874Z,94724.78
2018-06-09T08:35:44.091Z,94724.40
2018-06-09T08:38:13.338Z,94725.98
2018-06-09T08:40:42.315Z,94732.30
2018-06-09T08:43:11.540Z,94736.94
2018-06-09T08:45:40.784Z,94737.16
2018-06-09T08:48:10.031Z,94735.81
2018-06-09T08:50:39.261Z,94735.98
2018-06-09T08:53:08.485Z,94730.47
2018-06-09T08:55:38.047Z,94735.13
2018-06-09T08:58:07.264Z,94738.39
2018-06-09T09:00:36.514Z,94736.83
2018-06-09T09:03:06.079Z,94733.76
2018-06-09T09:05:35.263Z,94738.53
2018-06-09T09:08:04.594Z,94743.73
2018-06-09T09:10:33.831Z,94736.89
2018-06-09T09:13:03.122Z,94742.77
2018-06-09T09:15:32.374Z,94745.55
2018-06-09T09:18:01.470Z,94742.37
2018-06-09T09:20:30.678Z,94744.05
2018-06-09T09:22:59.894Z,94742.48
2018-06-09T09:25:29.115Z,94749.53
2018-06-09T09:27:58.331Z,94745.33
2018-06-09T09:30:27.567Z,94748.87
2018-06-09T09:32:56.801Z,94744.84
2018-06-09T09:35:26.024Z,94743.82
2018-06-09T09:37:55.224Z,94735.84
2018-06-09T09:40:24.490Z,94729.66
2018-06-09T09:42:53.724Z,94728.75
2018-06-09T09:45:22.985Z,94728.28
2018-06-09T09:47:52.184Z,94723.62
2018-06-09T09:50:21.462Z,94722.19
2018-06-09T09:52:50.708Z,94716.84
2018-06-09T09:55:19.962Z,94712.96
2018-06-09T09:58:03.118Z,94709.71
2018-06-09T10:00:37.368Z,94705.72
2018-06-09T10:03:07.006Z,94702.59
2018-06-09T10:05:36.246Z,94700.58
2018-06-09T10:08:05.464Z,94703.70
2018-06-09T10:10:34.694Z,94699.20
2018-06-09T10:13:03.934Z,94689.81
2018-06-09T10:15:33.223Z,94688.14
2018-06-09T10:18:02.470Z,94683.73
2018-06-09T10:20:31.719Z,94688.04
2018-06-09T10:23:00.958Z,94688.03
2018-06-09T10:25:30.183Z,94679.88
2018-06-09T10:27:59.453Z,94679.70
2018-06-09T10:30:28.647Z,94683.39
2018-06-09T10:32:57.899Z,94681.95
2018-06-09T10:35:27.119Z,94686.84
2018-06-09T10:37:56.361Z,94680.23
2018-06-09T10:40:25.596Z,94677.39
2018-06-09T10:42:54.814Z,94684.45
2018-06-09T10:45:24.067Z,94683.94
2018-06-09T10:47:53.311Z,94682.94
2018-06-09T10:50:22.581Z,94684.20
2018-06-09T10:52:51.796Z,94687.91
2018-06-09T10:55:21.041Z,94687.87
2018-06-09T10:57:50.276Z,94685.95
2018-06-09T11:00:19.495Z,94690.50
2018-06-09T11:02:48.742Z,94685.48
2018-06-09T11:05:17.991Z,94689.09
2018-06-09T11:07:47.304Z,94686.41
2018-06-09T11:10:16.609Z,94682.68
2018-06-09T11:12:45.849Z,94683.33
2018-06-09T11:15:14.886Z,94681.16
2018-06-09T11:17:44.092Z,94684.19
2018-06-09T11:20:13.317Z,94680.47
2018-06-09T11:22:42.554Z,94679.55
2018-06-09T11:25:11.527Z,94676.35
2018-06-09T11:27:40.807Z,94672.64
2018-06-09T11:30:10.007Z,94669.30
2018-06-09T11:32:39.254Z,94658.62
2018-06-09T11:35:08.255Z,94665.41
2018-06-09T11:37:37.504Z,94667.45
2018-06-09T11:40:06.724Z,94668.64
2018-06-09T11:42:35.938Z,94659.86
2018-06-09T11:45:05.265Z,94657.70
2018-06-09T11:47:34.458Z,94658.84
2018-06-09T11:50:03.703Z,94659.97
2018-06-09T11:52:32.919Z,94658.66
2018-06-09T11:55:02.107Z,94649.93
2018-06-09T11:57:31.415Z,94648.48
2018-06-09T12:00:00.617Z,94642.85
2018-06-09T12:02:29.829Z,94646.14
2018-06-09T12:04:59.118Z,94637.13
2018-06-09T12:07:28.502Z,94634.38
2018-06-09T12:09:57.806Z,94627.75
2018-06-09T12:12:27.034Z,94630.73
2018-06-09T12:14:56.268Z,94633.99
2018-06-09T12:17:25.490Z,94633.26
2018-06-09T12:19:54.718Z,94624.28
2018-06-09T12:22:23.942Z,94625.28
2018-06-09T12:24:53.160Z,94622.08
2018-06-09T12:27:22.376Z,94610.60
2018-06-09T12:29:51.598Z,94614.66
2018-06-09T12:32:20.903Z,94612.75
2018-06-09T12:34:50.148Z,94611.52
2018-06-09T12:37:19.382Z,94602.16
2018-06-09T12:39:48.686Z,94602.84
2018-06-09T12:42:18.006Z,94599.20
2018-06-09T12:44:47.243Z,94592.65
2018-06-09T12:47:16.573Z,94590.79
2018-06-09T12:49:45.793Z,94588.42
2018-06-09T12:52:15.002Z,94589.41
2018-06-09T12:54:44.283Z,94588.91
2018-06-09T12:57:13.490Z,94592.09
2018-06-09T12:59:42.723Z,94588.16
2018-06-09T13:02:11.927Z,94594.16
2018-06-09T13:04:41.143Z,94587.06
2018-06-09T13:07:10.351Z,94586.55
2018-06-09T13:09:39.556Z,94585.95
2018-06-09T13:12:08.752Z,94577.55
2018-06-09T13:14:38.779Z,94581.66
2018-06-09T13:17:08.046Z,94571.55
2018-06-09T13:19:37.278Z,94569.22
2018-06-09T13:22:06.503Z,94561.52
2018-06-09T13:24:35.715Z,94559.34
2018-06-09T13:27:05.158Z,94553.70
2018-06-09T13:29:34.387Z,94555.37
2018-06-09T13:32:03.603Z,94550.37
2018-06-09T13:36:56.247Z,94546.95
2018-06-09T13:39:25.526Z,94542.76
2018-06-09T13:41:54.734Z,94539.53
2018-06-09T13:44:25.003Z,94535.13
2018-06-09T13:46:54.241Z,94525.92
2018-06-09T13:49:23.414Z,94529.55
2018-06-09T13:51:52.628Z,94523.42
2018-06-09T13:54:22.155Z,94531.01
2018-06-09T13:56:51.337Z,94525.01
2018-06-09T13:59:20.540Z,94521.11
2018-06-09T14:01:49.763Z,94519.48
2018-06-09T14:04:18.991Z,94516.10
2018-06-09T14:06:48.250Z,94519.12
2018-06-09T14:09:17.494Z,94514.94
2018-06-09T14:11:46.710Z,94507.56
2018-06-09T14:14:15.927Z,94499.68
2018-06-09T14:16:45.164Z,94498.58
2018-06-09T14:19:14.668Z,94503.27
2018-06-09T14:21:43.629Z,94501.28
2018-06-09T14:24:12.847Z,94499.13
2018-06-09T14:26:42.036Z,94496.16
2018-06-09T14:29:11.087Z,94494.52
2018-06-09T14:31:40.922Z,94494.06
2018-06-09T14:34:10.146Z,94496.68
2018-06-09T14:36:39.346Z,94492.76
2018-06-09T14:39:08.786Z,94485.34
2018-06-09T14:41:37.986Z,94491.81
2018-06-09T14:44:07.223Z,94482.00
2018-06-09T14:46:36.429Z,94488.14
2018-06-09T14:49:05.748Z,94475.35
2018-06-09T14:51:34.987Z,94477.84
2018-06-09T14:54:04.174Z,94479.78
2018-06-09T14:56:33.390Z,94481.02
2018-06-09T14:59:02.582Z,94485.09
2018-06-09T15:01:31.790Z,94482.55
2018-06-09T15:04:00.990Z,94478.95
2018-06-09T15:06:30.308Z,94483.48
2018-06-09T15:08:59.514Z,94480.83
2018-06-09T15:11:28.754Z,94491.31
2018-06-09T15:13:57.933Z,94503.16
2018-06-09T15:16:27.135Z,94495.70
2018-06-09T15:18:56.346Z,94491.50
2018-06-09T15:21:25.579Z,94494.73
2018-06-09T15:23:54.796Z,94494.17
2018-06-09T15:26:24.078Z,94497.23
2018-06-09T15:28:53.357Z,94495.45
2018-06-09T15:31:22.570Z,94486.88
2018-06-09T15:33:51.791Z,94486.78
2018-06-09T15:36:21.045Z,94477.30
2018-06-09T15:38:50.235Z,94489.84
2018-06-09T15:41:19.450Z,94489.39
2018-06-09T15:43:48.402Z,94485.48
2018-06-09T15:46:17.685Z,94487.35
2018-06-09T15:48:46.893Z,94486.34
2018-06-09T15:51:16.192Z,94487.73
2018-06-09T15:53:45.391Z,94477.70
2018-06-09T15:56:14.603Z,94480.61
2018-06-09T15:58:43.812Z,94479.00
2018-06-09T16:01:13.042Z,94479.36
2018-06-09T16:03:42.266Z,94487.45
2018-06-09T16:06:11.492Z,94481.98
2018-06-09T16:08:40.701Z,94475.37
2018-06-09T16:11:09.919Z,94478.83
2018-06-09T16:13:39.111Z,94473.33
2018-06-09T16:16:08.307Z,94476.17
2018-06-09T16:18:37.530Z,94476.93
2018-06-09T16:21:06.758Z,94480.36
2018-06-09T16:26:08.634Z,94489.17
2018-06-09T16:28:37.841Z,94485.77
2018-06-09T16:31:07.108Z,94482.02
2018-06-09T16:33:36.456Z,94485.07
2018-06-09T16:36:05.963Z,94479.05
2018-06-09T16:38:35.196Z,94487.59
2018-06-09T16:41:04.374Z,94483.08
2018-06-09T16:43:33.584Z,94490.78
2018-06-09T16:46:02.810Z,94487.56
2018-06-09T16:48:32.033Z,94485.77
2018-06-09T16:51:01.238Z,94486.70
2018-06-09T16:53:30.442Z,94486.79
2018-06-09T16:55:59.668Z,94488.34
2018-06-09T16:58:28.894Z,94483.14
2018-06-09T17:00:58.114Z,94486.03
2018-06-09T17:03:27.342Z,94487.88
2018-06-09T17:05:56.634Z,94489.03
2018-06-09T17:08:25.843Z,94495.86
2018-06-09T17:10:55.050Z,94494.65
2018-06-09T17:13:24.287Z,94491.44
2018-06-09T17:15:53.496Z,94489.81
2018-06-09T17:18:22.585Z,94507.28
2018-06-09T17:20:51.806Z,94500.95
2018-06-09T17:23:20.772Z,94507.93
2018-06-09T17:25:50.043Z,94505.26
2018-06-09T17:28:19.291Z,94510.63
2018-06-09T17:30:48.571Z,94510.09
2018-06-09T17:33:18.687Z,94516.27
2018-06-09T17:35:47.923Z,94508.70
2018-06-09T17:38:17.147Z,94504.35
2018-06-09T17:40:46.420Z,94510.58
2018-06-09T17:43:15.617Z,94509.48
2018-06-09T17:45:46.124Z,94515.17
2018-06-09T17:48:15.368Z,94515.72
2018-06-09T17:50:44.582Z,94519.15
2018-06-09T17:53:13.778Z,94516.39
2018-06-09T17:55:43.055Z,94523.34
2018-06-09T17:58:12.339Z,94527.30
2018-06-09T18:00:41.551Z,94528.23
2018-06-09T18:03:10.855Z,94531.59
2018-06-09T18:05:40.076Z,94530.33
2018-06-09T18:08:09.307Z,94546.73
2018-06-09T18:10:38.530Z,94551.14
2018-06-09T18:13:07.750Z,94548.10
2018-06-09T18:15:36.968Z,94561.00
2018-06-09T18:18:06.208Z,94561.47
2018-06-09T18:20:35.427Z,94561.63
2018-06-09T18:23:04.765Z,94555.47
2018-06-09T18:25:33.897Z,94555.69
2018-06-09T18:28:08.672Z,94550.09
2018-06-09T18:30:37.872Z,94547.36
2018-06-09T18:33:07.077Z,94552.98
2018-06-09T18:35:36.291Z,94551.75
2018-06-09T18:38:05.515Z,94553.13
2018-06-09T18:40:34.734Z,94557.13
2018-06-09T18:43:03.963Z,94563.52
2018-06-09T18:45:33.195Z,94558.35
2018-06-09T18:48:02.408Z,94557.23
2018-06-09T18:50:31.626Z,94559.97
2018-06-09T18:53:00.838Z,94563.33
2018-06-09T18:55:30.051Z,94565.44
2018-06-09T18:57:59.322Z,94569.15
2018-06-09T19:00:28.627Z,94565.92
2018-06-09T19:02:57.850Z,94559.72
2018-06-09T19:05:27.069Z,94559.23
2018-06-09T19:07:56.303Z,94563.59
2018-06-09T19:33:58.938Z,94565.89
2018-06-09T19:36:28.287Z,94632.25
2018-06-09T19:38:57.568Z,94642.11
2018-06-09T19:41:26.781Z,94649.30
2018-06-09T19:43:56.035Z,94650.70
2018-06-09T19:46:25.240Z,94644.64
2018-06-09T19:48:54.441Z,94643.77
2018-06-09T19:51:23.684Z,94648.15
2018-06-09T19:53:52.989Z,94649.71
2018-06-09T19:56:22.201Z,94649.40
2018-06-09T19:58:51.429Z,94644.23
2018-06-09T20:01:20.402Z,94661.11
2018-06-09T20:03:49.608Z,94666.16
2018-06-09T20:06:18.892Z,94665.59
2018-06-09T20:08:48.112Z,94666.22
2018-06-09T20:11:17.323Z,94656.86
2018-06-09T20:13:46.518Z,94668.76
2018-06-09T20:16:15.745Z,94666.52
2018-06-09T20:18:44.978Z,94668.44
2018-06-09T20:21:14.261Z,94660.83
2018-06-09T20:23:43.519Z,94661.76
2018-06-09T20:26:12.799Z,94670.66
2018-06-09T20:28:42.024Z,94672.44
2018-06-09T20:31:11.246Z,94664.41
2018-06-09T20:33:40.527Z,94665.08
2018-06-09T20:36:09.782Z,94679.40
2018-06-09T20:38:40.221Z,94677.20
2018-06-09T20:41:09.194Z,94664.31
2018-06-09T20:43:38.434Z,94669.16
2018-06-09T20:46:07.770Z,94663.02
2018-06-09T20:48:36.946Z,94666.84
2018-06-09T20:51:06.287Z,94672.00
2018-06-09T20:53:35.495Z,94679.07
2018-06-09T20:56:04.738Z,94677.56
2018-06-09T20:58:39.049Z,94683.31
2018-06-09T21:01:08.602Z,94684.84
2018-06-09T21:03:37.843Z,94680.87
2018-06-09T21:06:07.068Z,94680.31
2018-06-09T21:08:36.260Z,94685.30
2018-06-09T21:11:05.487Z,94679.90
2018-06-09T21:13:34.729Z,94683.56
2018-06-09T21:16:03.974Z,94690.63
2018-06-09T21:18:33.170Z,94698.59
2018-06-09T21:21:02.400Z,94703.37
2018-06-09T21:23:31.605Z,94695.17
2018-06-09T21:26:00.815Z,94693.50
2018-06-09T21:28:34.099Z,94692.28
2018-06-09T21:31:08.595Z,94689.06
2018-06-09T21:33:59.922Z,94692.31
2018-06-09T21:36:30.244Z,94695.49
2018-06-09T21:39:00.343Z,94690.78
2018-06-09T21:41:35.331Z,94682.27
2018-06-09T21:44:09.665Z,94690.02
2018-06-09T21:46:44.870Z,94684.91
2018-06-09T21:49:14.379Z,94688.08
2018-06-09T21:51:43.604Z,94692.72
2018-06-09T21:54:13.063Z,94694.27
2018-06-09T21:56:42.304Z,94690.63
2018-06-09T21:59:11.595Z,94695.73
2018-06-09T22:01:40.837Z,94704.88
2018-06-09T22:04:10.047Z,94713.82
2018-06-09T22:06:39.274Z,94711.72
2018-06-09T22:09:08.481Z,94710.27
2018-06-09T22:11:37.711Z,94714.83
2018-06-09T22:14:07.024Z,94712.09
2018-06-09T22:16:36.240Z,94723.96
2018-06-09T22:19:05.447Z,94730.70
2018-06-09T22:21:34.656Z,94717.05
2018-06-09T22:24:03.863Z,94719.64
2018-06-09T22:26:33.101Z,94714.11
2018-06-09T22:29:02.317Z,94710.20
2018-06-09T22:31:31.546Z,94708.52
2018-06-09T22:34:00.752Z,94700.16
2018-06-09T22:36:29.963Z,94701.82
2018-06-09T22:38:59.171Z,94709.13
2018-06-09T22:41:28.377Z,94707.80
2018-06-09T22:43:57.856Z,94714.13
2018-06-09T22:46:27.073Z,94710.09
2018-06-09T22:48:56.294Z,94709.44
2018-06-09T22:51:25.527Z,94704.64
2018-06-09T22:53:54.748Z,94707.22
2018-06-09T22:56:24.078Z,94712.67
2018-06-09T22:58:53.366Z,94712.67
2018-06-09T23:01:22.603Z,94710.16
2018-06-09T23:03:51.830Z,94704.78
2018-06-09T23:06:21.055Z,94710.39
2018-06-09T23:08:50.263Z,94715.32
2018-06-09T23:11:19.494Z,94709.94
2018-06-09T23:14:20.070Z,94700.93
2018-06-09T23:16:50.164Z,94696.49
2018-06-09T23:19:19.398Z,94699.91
2018-06-09T23:21:48.627Z,94700.19
2018-06-09T23:24:17.926Z,94698.08
2018-06-09T23:26:47.160Z,94701.18
2018-06-09T23:29:16.389Z,94707.20
2018-06-09T23:31:45.634Z,94712.53
2018-06-09T23:34:14.927Z,94712.98
2018-06-09T23:36:44.178Z,94712.46
2018-06-09T23:39:13.410Z,94724.53
2018-06-09T23:41:42.617Z,94723.07
2018-06-09T23:44:11.841Z,94714.23
2018-06-09T23:46:41.083Z,94717.97
2018-06-09T23:49:10.362Z,94723.86
2018-06-09T23:51:39.614Z,94725.91
2018-06-09T23:54:08.859Z,94726.95
2018-06-09T23:56:38.175Z,94727.00
2018-06-09T23:59:07.392Z,94726.93
